sensor_id;sensor_type;location;lat;lon;timestamp;pressure;altitude;pressure_sealevel;temperature;humidity
19208;BME280;9737;59.466;18.036;2022-10-17T00:01:06;98128.78;;;9.37;79.22
19208;BME280;9737;59.466;18.036;2022-10-17T00:03:35;98105.06;;;9.27;79.49
19208;BME280;9737;59.466;18.036;2022-10-17T00:06:05;98121.31;;;9.32;79.51
19208;BME280;9737;59.466;18.036;2022-10-17T00:08:35;98108.88;;;9.32;79.31
19208;BME280;9737;59.466;18.036;2022-10-17T00:11:06;98107.38;;;9.30;79.32
19208;BME280;9737;59.466;18.036;2022-10-17T00:13:35;98127.13;;;9.36;79.13
19208;BME280;9737;59.466;18.036;2022-10-17T00:16:04;98142.03;;;9.37;79.25
19208;BME280;9737;59.466;18.036;2022-10-17T00:18:32;98162.44;;;9.44;79.63
19208;BME280;9737;59.466;18.036;2022-10-17T00:21:00;98176.91;;;9.50;78.73
19208;BME280;9737;59.466;18.036;2022-10-17T00:23:28;98185.69;;;9.50;79.18
19208;BME280;9737;59.466;18.036;2022-10-17T00:26:02;98182.38;;;9.48;79.42
19208;BME280;9737;59.466;18.036;2022-10-17T00:28:31;98188.19;;;9.52;79.47
19208;BME280;9737;59.466;18.036;2022-10-17T00:31:01;98201.16;;;9.55;79.07
19208;BME280;9737;59.466;18.036;2022-10-17T00:33:29;98205.63;;;9.54;78.99
19208;BME280;9737;59.466;18.036;2022-10-17T00:36:02;98226.22;;;9.60;79.43
19208;BME280;9737;59.466;18.036;2022-10-17T00:38:30;98248.78;;;9.65;78.93
19208;BME280;9737;59.466;18.036;2022-10-17T00:40:58;98279.66;;;9.74;79.10
19208;BME280;9737;59.466;18.036;2022-10-17T00:43:28;98293.59;;;9.76;78.88
19208;BME280;9737;59.466;18.036;2022-10-17T00:45:56;98321.16;;;9.83;79.03
19208;BME280;9737;59.466;18.036;2022-10-17T00:48:24;98337.47;;;9.88;78.60
19208;BME280;9737;59.466;18.036;2022-10-17T00:50:52;98359.91;;;9.93;79.06
19208;BME280;9737;59.466;18.036;2022-10-17T00:53:21;98386.66;;;10.00;79.22
19208;BME280;9737;59.466;18.036;2022-10-17T00:55:50;98391.63;;;10.03;78.71
19208;BME280;9737;59.466;18.036;2022-10-17T00:58:19;98396.44;;;10.00;79.17
19208;BME280;9737;59.466;18.036;2022-10-17T01:00:49;98407.41;;;10.05;79.30
19208;BME280;9737;59.466;18.036;2022-10-17T01:03:17;98412.56;;;10.06;79.27
19208;BME280;9737;59.466;18.036;2022-10-17T01:05:45;98386.97;;;9.97;79.63
19208;BME280;9737;59.466;18.036;2022-10-17T01:08:13;98391.63;;;10.03;78.91
19208;BME280;9737;59.466;18.036;2022-10-17T01:10:48;98383.31;;;9.98;78.86
19208;BME280;9737;59.466;18.036;2022-10-17T01:13:25;98397.78;;;10.04;79.17
19208;BME280;9737;59.466;18.036;2022-10-17T01:16:04;98402.59;;;10.00;78.95
19208;BME280;9737;59.466;18.036;2022-10-17T01:18:41;98420.22;;;10.09;78.91
19208;BME280;9737;59.466;18.036;2022-10-17T01:21:28;98430.56;;;10.12;78.94
19208;BME280;9737;59.466;18.036;2022-10-17T01:24:13;98440.19;;;10.13;79.00
19208;BME280;9737;59.466;18.036;2022-10-17T01:26:57;98424.84;;;10.07;78.91
19208;BME280;9737;59.466;18.036;2022-10-17T01:29:46;98418.72;;;10.07;78.68
19208;BME280;9737;59.466;18.036;2022-10-17T01:32:25;98430.69;;;10.11;79.37
19208;BME280;9737;59.466;18.036;2022-10-17T01:35:02;98442.84;;;10.13;79.08
19208;BME280;9737;59.466;18.036;2022-10-17T01:37:39;98441.84;;;10.14;79.13
19208;BME280;9737;59.466;18.036;2022-10-17T01:40:12;98466.09;;;10.19;78.79
19208;BME280;9737;59.466;18.036;2022-10-17T01:42:47;98480.75;;;10.23;79.26
19208;BME280;9737;59.466;18.036;2022-10-17T01:45:26;98508.38;;;10.31;78.92
19208;BME280;9737;59.466;18.036;2022-10-17T01:48:02;98508.53;;;10.29;79.12
19208;BME280;9737;59.466;18.036;2022-10-17T01:50:33;98534.97;;;10.39;79.15
19208;BME280;9737;59.466;18.036;2022-10-17T01:53:06;98546.31;;;10.41;79.05
19208;BME280;9737;59.466;18.036;2022-10-17T01:55:41;98562.09;;;10.42;79.06
19208;BME280;9737;59.466;18.036;2022-10-17T01:58:13;98572.25;;;10.47;79.21
19208;BME280;9737;59.466;18.036;2022-10-17T02:00:46;98572.41;;;10.45;78.67
19208;BME280;9737;59.466;18.036;2022-10-17T02:03:18;98565.59;;;10.43;79.04
19208;BME280;9737;59.466;18.036;2022-10-17T02:05:47;98577.41;;;10.48;78.73
19208;BME280;9737;59.466;18.036;2022-10-17T02:08:24;98553.56;;;10.39;78.95
19208;BME280;9737;59.466;18.036;2022-10-17T02:10:55;98565.25;;;10.46;78.66
19208;BME280;9737;59.466;18.036;2022-10-17T02:13:33;98580.22;;;10.47;78.68
19208;BME280;9737;59.466;18.036;2022-10-17T02:16:18;98594.53;;;10.54;78.99
19208;BME280;9737;59.466;18.036;2022-10-17T02:19:04;98620.81;;;10.57;78.74
19208;BME280;9737;59.466;18.036;2022-10-17T02:21:43;98594.84;;;10.51;79.12
19208;BME280;9737;59.466;18.036;2022-10-17T02:24:17;98589.84;;;10.48;78.88
19208;BME280;9737;59.466;18.036;2022-10-17T02:26:52;98581.72;;;10.49;78.47
19208;BME280;9737;59.466;18.036;2022-10-17T02:29:26;98580.22;;;10.47;78.64
19208;BME280;9737;59.466;18.036;2022-10-17T02:31:59;98601.84;;;10.52;78.69
19208;BME280;9737;59.466;18.036;2022-10-17T02:34:33;98629.59;;;10.58;78.66
19208;BME280;9737;59.466;18.036;2022-10-17T02:37:06;98633.63;;;10.62;78.57
19208;BME280;9737;59.466;18.036;2022-10-17T02:39:35;98621.44;;;10.51;78.78
19208;BME280;9737;59.466;18.036;2022-10-17T02:42:07;98655.78;;;10.70;79.07
19208;BME280;9737;59.466;18.036;2022-10-17T02:44:40;98670.75;;;10.71;78.86
19208;BME280;9737;59.466;18.036;2022-10-17T02:47:16;98666.56;;;10.69;78.20
19208;BME280;9737;59.466;18.036;2022-10-17T02:49:50;98657.22;;;10.65;78.66
19208;BME280;9737;59.466;18.036;2022-10-17T02:52:23;98623.16;;;10.60;78.72
19208;BME280;9737;59.466;18.036;2022-10-17T02:54:57;98633.47;;;10.63;78.27
19208;BME280;9737;59.466;18.036;2022-10-17T02:57:30;98607.81;;;10.54;78.85
19208;BME280;9737;59.466;18.036;2022-10-17T03:00:04;98585.88;;;10.52;78.50
19208;BME280;9737;59.466;18.036;2022-10-17T03:02:38;98593.88;;;10.52;78.37
19208;BME280;9737;59.466;18.036;2022-10-17T03:05:09;98562.44;;;10.47;78.22
19208;BME280;9737;59.466;18.036;2022-10-17T03:07:38;98526.63;;;10.34;78.47
19208;BME280;9737;59.466;18.036;2022-10-17T03:10:06;98541.94;;;10.40;78.88
19208;BME280;9737;59.466;18.036;2022-10-17T03:12:34;98529.66;;;10.39;78.24
19208;BME280;9737;59.466;18.036;2022-10-17T03:15:03;98526.31;;;10.37;78.49
19208;BME280;9737;59.466;18.036;2022-10-17T03:17:31;98513.53;;;10.32;78.65
19208;BME280;9737;59.466;18.036;2022-10-17T03:19:59;98497.06;;;10.29;78.73
19208;BME280;9737;59.466;18.036;2022-10-17T03:22:29;98478.78;;;10.26;77.86
19208;BME280;9737;59.466;18.036;2022-10-17T03:24:57;98410.59;;;10.08;78.26
19208;BME280;9737;59.466;18.036;2022-10-17T03:27:25;98418.22;;;10.11;77.64
19208;BME280;9737;59.466;18.036;2022-10-17T03:29:54;98391.63;;;10.03;78.02
19208;BME280;9737;59.466;18.036;2022-10-17T03:32:22;98376.84;;;10.01;78.39
19208;BME280;9737;59.466;18.036;2022-10-17T03:34:50;98355.09;;;9.97;78.21
19208;BME280;9737;59.466;18.036;2022-10-17T03:37:18;98348.44;;;9.93;78.11
19208;BME280;9737;59.466;18.036;2022-10-17T03:39:47;98325.19;;;9.87;77.99
19208;BME280;9737;59.466;18.036;2022-10-17T03:42:15;98346.78;;;9.92;78.34
19208;BME280;9737;59.466;18.036;2022-10-17T03:44:43;98341.47;;;9.92;77.91
19208;BME280;9737;59.466;18.036;2022-10-17T03:47:12;98308.88;;;9.82;78.12
19208;BME280;9737;59.466;18.036;2022-10-17T03:49:40;98295.47;;;9.83;77.93
19208;BME280;9737;59.466;18.036;2022-10-17T03:52:10;98302.31;;;9.86;78.28
19208;BME280;9737;59.466;18.036;2022-10-17T03:54:38;98320.56;;;9.89;78.32
19208;BME280;9737;59.466;18.036;2022-10-17T03:57:07;98321.72;;;9.86;77.68
19208;BME280;9737;59.466;18.036;2022-10-17T03:59:35;98313.91;;;9.85;77.79
19208;BME280;9737;59.466;18.036;2022-10-17T04:02:03;98261.25;;;9.72;77.99
19208;BME280;9737;59.466;18.036;2022-10-17T04:04:31;98278.34;;;9.78;77.28
19208;BME280;9737;59.466;18.036;2022-10-17T04:06:59;98242.47;;;9.66;78.15
19208;BME280;9737;59.466;18.036;2022-10-17T04:09:27;98244.81;;;9.69;77.50
19208;BME280;9737;59.466;18.036;2022-10-17T04:11:56;98242.81;;;9.71;78.28
19208;BME280;9737;59.466;18.036;2022-10-17T04:14:26;98229.53;;;9.62;77.88
19208;BME280;9737;59.466;18.036;2022-10-17T04:16:54;98220.91;;;9.60;77.81
19208;BME280;9737;59.466;18.036;2022-10-17T04:19:24;98244.81;;;9.69;77.24
19208;BME280;9737;59.466;18.036;2022-10-17T04:21:52;98237.69;;;9.69;77.61
19208;BME280;9737;59.466;18.036;2022-10-17T04:24:20;98211.94;;;9.61;78.08
19208;BME280;9737;59.466;18.036;2022-10-17T04:26:48;98199.16;;;9.57;77.58
19208;BME280;9737;59.466;18.036;2022-10-17T04:29:16;98165.44;;;9.49;77.62
19208;BME280;9737;59.466;18.036;2022-10-17T04:31:46;98152.34;;;9.48;77.73
19208;BME280;9737;59.466;18.036;2022-10-17T04:34:15;98140.25;;;9.45;77.32
19208;BME280;9737;59.466;18.036;2022-10-17T04:36:43;98148.19;;;9.45;78.01
19208;BME280;9737;59.466;18.036;2022-10-17T04:39:11;98131.09;;;9.40;77.91
19208;BME280;9737;59.466;18.036;2022-10-17T04:41:39;98123.16;;;9.40;77.32
19208;BME280;9737;59.466;18.036;2022-10-17T04:44:08;98102.06;;;9.30;77.38
19208;BME280;9737;59.466;18.036;2022-10-17T04:46:37;98114.53;;;9.38;77.94
19208;BME280;9737;59.466;18.036;2022-10-17T04:49:07;98103.41;;;9.34;77.84
19208;BME280;9737;59.466;18.036;2022-10-17T04:51:37;98094.78;;;9.32;77.36
19208;BME280;9737;59.466;18.036;2022-10-17T04:54:05;98111.38;;;9.34;77.23
19208;BME280;9737;59.466;18.036;2022-10-17T04:56:33;98074.22;;;9.26;77.37
19208;BME280;9737;59.466;18.036;2022-10-17T04:59:01;98112.69;;;9.38;77.65
19208;BME280;9737;59.466;18.036;2022-10-17T05:01:29;98133.44;;;9.43;77.86
19208;BME280;9737;59.466;18.036;2022-10-17T05:03:59;98110.69;;;9.32;77.63
19208;BME280;9737;59.466;18.036;2022-10-17T05:06:29;98144.56;;;9.46;77.33
19208;BME280;9737;59.466;18.036;2022-10-17T05:08:58;98142.91;;;9.45;77.30
19208;BME280;9737;59.466;18.036;2022-10-17T05:11:28;98130.44;;;9.38;77.47
19208;BME280;9737;59.466;18.036;2022-10-17T05:13:58;98106.56;;;9.38;77.84
19208;BME280;9737;59.466;18.036;2022-10-17T05:16:27;98106.72;;;9.36;77.47
19208;BME280;9737;59.466;18.036;2022-10-17T05:18:56;98097.94;;;9.36;77.20
19208;BME280;9737;59.466;18.036;2022-10-17T05:21:26;98098.78;;;9.36;77.67
19208;BME280;9737;59.466;18.036;2022-10-17T05:23:56;98110.03;;;9.38;77.46
19208;BME280;9737;59.466;18.036;2022-10-17T05:26:24;98090.16;;;9.34;77.46
19208;BME280;9737;59.466;18.036;2022-10-17T05:28:52;98104.41;;;9.33;77.04
19208;BME280;9737;59.466;18.036;2022-10-17T05:31:20;98088.31;;;9.35;76.96
19208;BME280;9737;59.466;18.036;2022-10-17T05:33:48;98089.47;;;9.32;76.74
19208;BME280;9737;59.466;18.036;2022-10-17T05:36:16;98105.72;;;9.37;77.33
19208;BME280;9737;59.466;18.036;2022-10-17T05:38:48;98090.47;;;9.31;77.62
19208;BME280;9737;59.466;18.036;2022-10-17T05:41:18;98064.78;;;9.31;77.05
19208;BME280;9737;59.466;18.036;2022-10-17T05:43:46;98065.56;;;9.24;76.79
19208;BME280;9737;59.466;18.036;2022-10-17T05:46:16;98052.00;;;9.27;77.30
19208;BME280;9737;59.466;18.036;2022-10-17T05:48:44;98046.66;;;9.19;77.56
19208;BME280;9737;59.466;18.036;2022-10-17T05:51:12;98030.75;;;9.19;77.65
19208;BME280;9737;59.466;18.036;2022-10-17T05:53:40;98036.88;;;9.19;77.76
19208;BME280;9737;59.466;18.036;2022-10-17T05:56:10;98072.56;;;9.33;77.09
19208;BME280;9737;59.466;18.036;2022-10-17T05:58:42;98085.16;;;9.31;76.74
19208;BME280;9737;59.466;18.036;2022-10-17T06:01:17;98120.34;;;9.41;77.15
19208;BME280;9737;59.466;18.036;2022-10-17T06:03:45;98130.78;;;9.43;77.50
19208;BME280;9737;59.466;18.036;2022-10-17T06:06:14;98100.09;;;9.32;77.56
19208;BME280;9737;59.466;18.036;2022-10-17T06:08:43;98123.66;;;9.43;77.02
19208;BME280;9737;59.466;18.036;2022-10-17T06:11:12;98128.78;;;9.45;77.01
19208;BME280;9737;59.466;18.036;2022-10-17T06:13:41;98165.13;;;9.52;77.39
19208;BME280;9737;59.466;18.036;2022-10-17T06:16:09;98157.88;;;9.54;77.32
19208;BME280;9737;59.466;18.036;2022-10-17T06:18:37;98170.44;;;9.52;77.35
19208;BME280;9737;59.466;18.036;2022-10-17T06:21:08;98184.06;;;9.57;77.31
19208;BME280;9737;59.466;18.036;2022-10-17T06:23:36;98190.84;;;9.52;77.08
19208;BME280;9737;59.466;18.036;2022-10-17T06:26:05;98173.91;;;9.45;77.16
19208;BME280;9737;59.466;18.036;2022-10-17T06:28:34;98191.22;;;9.57;76.61
19208;BME280;9737;59.466;18.036;2022-10-17T06:31:05;98168.78;;;9.51;77.47
19208;BME280;9737;59.466;18.036;2022-10-17T06:33:34;98182.09;;;9.59;76.69
19208;BME280;9737;59.466;18.036;2022-10-17T06:36:03;98198.34;;;9.56;76.98
19208;BME280;9737;59.466;18.036;2022-10-17T06:38:32;98246.16;;;9.73;76.95
19208;BME280;9737;59.466;18.036;2022-10-17T06:41:02;98261.91;;;9.74;77.37
19208;BME280;9737;59.466;18.036;2022-10-17T06:43:34;98324.41;;;9.94;76.84
19208;BME280;9737;59.466;18.036;2022-10-17T06:46:02;98394.31;;;10.11;77.01
19208;BME280;9737;59.466;18.036;2022-10-17T06:48:31;98451.38;;;10.25;77.25
19208;BME280;9737;59.466;18.036;2022-10-17T06:50:59;98541.34;;;10.46;77.00
19208;BME280;9737;59.466;18.036;2022-10-17T06:53:28;98613.88;;;10.64;77.18
19208;BME280;9737;59.466;18.036;2022-10-17T06:55:57;98676.94;;;10.80;76.84
19208;BME280;9737;59.466;18.036;2022-10-17T06:58:29;98746.03;;;10.98;77.00
19208;BME280;9737;59.466;18.036;2022-10-17T07:00:58;98753.06;;;10.99;77.36
19208;BME280;9737;59.466;18.036;2022-10-17T07:03:27;98717.03;;;10.86;77.22
19208;BME280;9737;59.466;18.036;2022-10-17T07:05:57;98709.06;;;10.86;77.50
19208;BME280;9737;59.466;18.036;2022-10-17T07:08:25;98728.66;;;10.85;77.32
19208;BME280;9737;59.466;18.036;2022-10-17T07:10:54;98798.16;;;11.08;76.78
19208;BME280;9737;59.466;18.036;2022-10-17T07:13:23;98847.31;;;11.22;77.22
19208;BME280;9737;59.466;18.036;2022-10-17T07:15:51;98890.66;;;11.32;77.38
19208;BME280;9737;59.466;18.036;2022-10-17T07:18:23;98919.97;;;11.40;77.14
19208;BME280;9737;59.466;18.036;2022-10-17T07:20:52;99026.53;;;11.66;77.15
19208;BME280;9737;59.466;18.036;2022-10-17T07:23:22;99188.56;;;12.06;77.14
19208;BME280;9737;59.466;18.036;2022-10-17T07:25:50;99505.38;;;12.84;77.21
19208;BME280;9737;59.466;18.036;2022-10-17T07:28:18;99828.03;;;13.43;77.48
19208;BME280;9737;59.466;18.036;2022-10-17T07:30:46;100128.47;;;14.26;77.52
19208;BME280;9737;59.466;18.036;2022-10-17T07:33:20;100421.41;;;14.99;77.42
19208;BME280;9737;59.466;18.036;2022-10-17T07:35:48;100547.44;;;15.27;77.52
19208;BME280;9737;59.466;18.036;2022-10-17T07:38:18;100662.28;;;15.50;77.49
19208;BME280;9737;59.466;18.036;2022-10-17T07:40:54;100697.31;;;15.59;77.33
19208;BME280;9737;59.466;18.036;2022-10-17T07:43:22;100666.53;;;15.53;77.49
19208;BME280;9737;59.466;18.036;2022-10-17T07:45:51;100676.97;;;15.56;77.57
19208;BME280;9737;59.466;18.036;2022-10-17T07:48:20;100526.88;;;15.17;77.43
19208;BME280;9737;59.466;18.036;2022-10-17T07:50:49;100561.69;;;15.27;77.39
19208;BME280;9737;59.466;18.036;2022-10-17T07:53:18;100485.41;;;15.12;77.24
19208;BME280;9737;59.466;18.036;2022-10-17T07:55:46;100481.47;;;15.06;77.23
19208;BME280;9737;59.466;18.036;2022-10-17T07:58:17;100514.31;;;15.08;76.99
19208;BME280;9737;59.466;18.036;2022-10-17T08:00:45;100650.88;;;15.48;76.98
19208;BME280;9737;59.466;18.036;2022-10-17T08:03:14;100577.91;;;15.26;77.15
19208;BME280;9737;59.466;18.036;2022-10-17T08:05:42;100680.38;;;15.58;77.11
19208;BME280;9737;59.466;18.036;2022-10-17T08:08:10;100852.97;;;15.97;76.82
19208;BME280;9737;59.466;18.036;2022-10-17T08:10:39;101184.41;;;16.73;76.95
19208;BME280;9737;59.466;18.036;2022-10-17T08:13:07;101240.75;;;16.85;76.96
19208;BME280;9737;59.466;18.036;2022-10-17T08:15:36;101248.69;;;16.86;77.08
19208;BME280;9737;59.466;18.036;2022-10-17T08:18:05;101248.69;;;16.86;76.99
19208;BME280;9737;59.466;18.036;2022-10-17T08:20:34;101199.53;;;16.75;76.91
19208;BME280;9737;59.466;18.036;2022-10-17T08:23:01;101140.66;;;16.62;76.71
19208;BME280;9737;59.466;18.036;2022-10-17T08:25:29;100916.25;;;16.09;76.58
19208;BME280;9737;59.466;18.036;2022-10-17T08:27:58;100758.59;;;15.73;76.39
19208;BME280;9737;59.466;18.036;2022-10-17T08:30:26;100873.03;;;16.03;76.49
19208;BME280;9737;59.466;18.036;2022-10-17T08:32:57;100749.00;;;15.70;76.31
19208;BME280;9737;59.466;18.036;2022-10-17T08:35:25;100942.53;;;16.16;76.23
19208;BME280;9737;59.466;18.036;2022-10-17T08:37:57;101170.25;;;16.71;76.15
19208;BME280;9737;59.466;18.036;2022-10-17T08:40:29;101481.31;;;17.42;76.17
19208;BME280;9737;59.466;18.036;2022-10-17T08:43:09;101734.06;;;17.96;76.17
19208;BME280;9737;59.466;18.036;2022-10-17T08:45:45;102174.34;;;19.01;76.28
19208;BME280;9737;59.466;18.036;2022-10-17T08:48:17;102276.44;;;19.16;76.11
19208;BME280;9737;59.466;18.036;2022-10-17T08:50:49;102588.19;;;19.89;76.08
19208;BME280;9737;59.466;18.036;2022-10-17T08:53:21;102783.63;;;20.34;75.96
19208;BME280;9737;59.466;18.036;2022-10-17T08:55:50;102980.63;;;20.74;75.94
19208;BME280;9737;59.466;18.036;2022-10-17T08:58:22;102968.94;;;20.73;75.90
19208;BME280;9737;59.466;18.036;2022-10-17T09:01:00;102978.66;;;20.76;75.82
19208;BME280;9737;59.466;18.036;2022-10-17T09:03:55;102785.22;;;20.37;75.75
19208;BME280;9737;59.466;18.036;2022-10-17T09:06:28;102519.22;;;19.74;75.71
19208;BME280;9737;59.466;18.036;2022-10-17T09:09:10;102544.63;;;19.83;75.42
19208;BME280;9737;59.466;18.036;2022-10-17T09:11:55;102370.50;;;19.43;75.33
19208;BME280;9737;59.466;18.036;2022-10-17T09:14:43;102472.84;;;19.69;75.17
19208;BME280;9737;59.466;18.036;2022-10-17T09:17:23;102474.69;;;19.68;75.26
19208;BME280;9737;59.466;18.036;2022-10-17T09:19:59;102437.22;;;19.64;74.94
19208;BME280;9737;59.466;18.036;2022-10-17T09:22:33;102688.41;;;20.20;74.89
19208;BME280;9737;59.466;18.036;2022-10-17T09:25:12;102930.22;;;20.73;74.75
19208;BME280;9737;59.466;18.036;2022-10-17T09:27:49;102990.75;;;20.83;74.57
19208;BME280;9737;59.466;18.036;2022-10-17T09:30:24;103228.25;;;21.39;74.58
19208;BME280;9737;59.466;18.036;2022-10-17T09:33:13;102977.97;;;20.85;74.50
19208;BME280;9737;59.466;18.036;2022-10-17T09:36:09;102654.75;;;20.13;74.34
19208;BME280;9737;59.466;18.036;2022-10-17T09:38:40;102786.75;;;20.41;74.06
19208;BME280;9737;59.466;18.036;2022-10-17T09:41:17;103189.97;;;21.32;73.87
19208;BME280;9737;59.466;18.036;2022-10-17T09:44:26;103321.19;;;21.63;73.80
19208;BME280;9737;59.466;18.036;2022-10-17T09:47:16;103458.88;;;21.93;73.74
19208;BME280;9737;59.466;18.036;2022-10-17T09:49:46;103854.84;;;22.79;73.44
19208;BME280;9737;59.466;18.036;2022-10-17T09:52:18;104100.72;;;23.34;73.67
19208;BME280;9737;59.466;18.036;2022-10-17T09:54:52;104243.56;;;23.63;73.22
19208;BME280;9737;59.466;18.036;2022-10-17T09:57:21;104139.28;;;23.39;73.38
19208;BME280;9737;59.466;18.036;2022-10-17T09:59:56;104007.09;;;23.14;73.33
19208;BME280;9737;59.466;18.036;2022-10-17T10:02:26;103366.09;;;21.78;73.01
19208;BME280;9737;59.466;18.036;2022-10-17T10:05:00;103130.75;;;21.27;72.92
19208;BME280;9737;59.466;18.036;2022-10-17T10:07:35;102836.19;;;20.65;72.73
19208;BME280;9737;59.466;18.036;2022-10-17T10:10:05;102238.28;;;19.32;72.61
19208;BME280;9737;59.466;18.036;2022-10-17T10:12:36;101923.19;;;18.64;72.28
19208;BME280;9737;59.466;18.036;2022-10-17T10:15:33;101929.41;;;18.64;72.23
19208;BME280;9737;59.466;18.036;2022-10-17T10:18:02;101899.28;;;18.59;72.15
19208;BME280;9737;59.466;18.036;2022-10-17T10:20:33;102102.28;;;19.03;71.80
19208;BME280;9737;59.466;18.036;2022-10-17T10:23:13;102205.91;;;19.32;71.73
19208;BME280;9737;59.466;18.036;2022-10-17T10:25:53;102333.06;;;19.61;71.60
19208;BME280;9737;59.466;18.036;2022-10-17T10:28:24;102537.97;;;20.09;71.46
19208;BME280;9737;59.466;18.036;2022-10-17T10:30:54;103188.44;;;21.52;71.17
19208;BME280;9737;59.466;18.036;2022-10-17T10:33:25;103797.84;;;22.79;71.04
19208;BME280;9737;59.466;18.036;2022-10-17T10:35:56;104182.47;;;23.69;71.22
19208;BME280;9737;59.466;18.036;2022-10-17T10:38:26;104474.53;;;24.31;71.17
19208;BME280;9737;59.466;18.036;2022-10-17T10:40:57;104115.50;;;23.55;71.25
19208;BME280;9737;59.466;18.036;2022-10-17T10:43:32;104489.09;;;24.30;70.96
19208;BME280;9737;59.466;18.036;2022-10-17T10:46:02;104351.28;;;24.04;70.84
19208;BME280;9737;59.466;18.036;2022-10-17T10:48:34;104439.53;;;24.25;70.80
19208;BME280;9737;59.466;18.036;2022-10-17T10:51:04;104328.88;;;24.00;70.49
19208;BME280;9737;59.466;18.036;2022-10-17T10:53:42;104425.06;;;24.25;70.37
19208;BME280;9737;59.466;18.036;2022-10-17T10:56:16;104608.47;;;24.62;70.07
19208;BME280;9737;59.466;18.036;2022-10-17T10:58:52;104805.13;;;25.07;70.11
19208;BME280;9737;59.466;18.036;2022-10-17T11:01:28;105000.44;;;25.47;69.79
19208;BME280;9737;59.466;18.036;2022-10-17T11:04:07;104998.50;;;25.49;69.89
19208;BME280;9737;59.466;18.036;2022-10-17T11:06:42;104907.91;;;25.31;69.54
19208;BME280;9737;59.466;18.036;2022-10-17T11:09:23;105102.28;;;25.75;69.20
19208;BME280;9737;59.466;18.036;2022-10-17T11:12:03;105309.44;;;26.19;69.33
19208;BME280;9737;59.466;18.036;2022-10-17T11:14:40;105187.34;;;25.94;69.00
19208;BME280;9737;59.466;18.036;2022-10-17T11:17:22;105134.38;;;25.84;68.76
19208;BME280;9737;59.466;18.036;2022-10-17T11:20:02;104847.41;;;25.26;68.59
19208;BME280;9737;59.466;18.036;2022-10-17T11:22:32;104534.97;;;24.62;68.53
19208;BME280;9737;59.466;18.036;2022-10-17T11:25:05;104396.38;;;24.33;68.33
19208;BME280;9737;59.466;18.036;2022-10-17T11:27:41;103880.63;;;23.23;67.94
19208;BME280;9737;59.466;18.036;2022-10-17T11:30:12;103566.88;;;22.60;68.12
19208;BME280;9737;59.466;18.036;2022-10-17T11:32:44;103265.50;;;21.94;67.85
19208;BME280;9737;59.466;18.036;2022-10-17T11:35:18;102965.53;;;21.29;67.60
19208;BME280;9737;59.466;18.036;2022-10-17T11:37:54;102701.47;;;20.70;67.25
19208;BME280;9737;59.466;18.036;2022-10-17T11:40:29;102667.34;;;20.58;67.15
19208;BME280;9737;59.466;18.036;2022-10-17T11:42:59;102690.53;;;20.72;66.81
19208;BME280;9737;59.466;18.036;2022-10-17T11:45:32;102796.63;;;20.98;66.79
19208;BME280;9737;59.466;18.036;2022-10-17T11:48:05;102587.34;;;20.45;67.02
19208;BME280;9737;59.466;18.036;2022-10-17T11:50:39;102224.97;;;19.63;66.42
19208;BME280;9737;59.466;18.036;2022-10-17T11:53:33;102325.00;;;19.93;66.32
19208;BME280;9737;59.466;18.036;2022-10-17T11:56:10;102504.41;;;20.34;66.12
19208;BME280;9737;59.466;18.036;2022-10-17T11:58:41;102548.38;;;20.47;66.00
19208;BME280;9737;59.466;18.036;2022-10-17T12:01:18;102461.81;;;20.26;65.86
19208;BME280;9737;59.466;18.036;2022-10-17T12:04:03;102091.56;;;19.44;65.81
19208;BME280;9737;59.466;18.036;2022-10-17T12:06:42;101806.09;;;18.77;65.40
19208;BME280;9737;59.466;18.036;2022-10-17T12:09:21;101628.47;;;18.34;65.20
19208;BME280;9737;59.466;18.036;2022-10-17T12:11:55;101458.13;;;18.02;65.29
19208;BME280;9737;59.466;18.036;2022-10-17T12:14:35;101401.97;;;17.87;65.02
19208;BME280;9737;59.466;18.036;2022-10-17T12:17:04;101321.91;;;17.70;64.93
19208;BME280;9737;59.466;18.036;2022-10-17T12:19:34;101225.41;;;17.46;64.76
19208;BME280;9737;59.466;18.036;2022-10-17T12:22:14;101192.28;;;17.36;64.71
19208;BME280;9737;59.466;18.036;2022-10-17T12:24:44;101050.88;;;17.04;64.55
19208;BME280;9737;59.466;18.036;2022-10-17T12:27:31;100900.53;;;16.74;64.24
19208;BME280;9737;59.466;18.036;2022-10-17T12:30:00;100803.59;;;16.48;64.10
19208;BME280;9737;59.466;18.036;2022-10-17T12:32:29;100717.84;;;16.27;64.10
19208;BME280;9737;59.466;18.036;2022-10-17T12:35:20;100658.69;;;16.19;63.90
19208;BME280;9737;59.466;18.036;2022-10-17T12:41:03;100408.66;;;15.59;63.67
19208;BME280;9737;59.466;18.036;2022-10-17T12:43:43;100281.91;;;15.30;63.82
19208;BME280;9737;59.466;18.036;2022-10-17T12:46:12;100221.78;;;15.14;63.57
19208;BME280;9737;59.466;18.036;2022-10-17T12:49:03;100175.31;;;15.06;63.40
19208;BME280;9737;59.466;18.036;2022-10-17T12:52:04;100139.50;;;14.97;63.09
19208;BME280;9737;59.466;18.036;2022-10-17T12:54:39;100102.09;;;14.87;62.93
19208;BME280;9737;59.466;18.036;2022-10-17T12:57:31;100008.63;;;14.67;63.13
19208;BME280;9737;59.466;18.036;2022-10-17T13:00:11;100023.53;;;14.69;63.15
19208;BME280;9737;59.466;18.036;2022-10-17T13:02:41;99984.84;;;14.64;63.08
19208;BME280;9737;59.466;18.036;2022-10-17T13:05:14;99981.31;;;14.63;62.62
19208;BME280;9737;59.466;18.036;2022-10-17T13:07:44;99960.38;;;14.59;62.52
19208;BME280;9737;59.466;18.036;2022-10-17T13:10:20;99920.31;;;14.49;62.94
19208;BME280;9737;59.466;18.036;2022-10-17T13:12:49;99864.28;;;14.38;62.82
19208;BME280;9737;59.466;18.036;2022-10-17T13:15:19;99822.69;;;14.25;62.43
19208;BME280;9737;59.466;18.036;2022-10-17T13:17:55;99727.88;;;14.02;62.49
19208;BME280;9737;59.466;18.036;2022-10-17T13:20:25;99713.81;;;14.00;62.58
19208;BME280;9737;59.466;18.036;2022-10-17T13:22:57;99695.56;;;13.95;62.24
19208;BME280;9737;59.466;18.036;2022-10-17T13:25:26;99677.47;;;13.89;62.47
19208;BME280;9737;59.466;18.036;2022-10-17T13:28:10;99671.97;;;13.91;62.43
19208;BME280;9737;59.466;18.036;2022-10-17T13:30:45;99661.69;;;13.86;62.04